createdAt,value
2023-02-11T00:01:17.281Z,101958.21
2023-02-11T00:03:29.097Z,101961.46
2023-02-11T00:05:41.268Z,101963.14
2023-02-11T00:07:53.369Z,101954.77
2023-02-11T00:10:08.125Z,101949.45
2023-02-11T00:12:19.915Z,101944.07
2023-02-11T00:14:32.023Z,101945.38
2023-02-11T00:16:44.246Z,101946.46
2023-02-11T00:18:56.310Z,101945.16
2023-02-11T00:21:10.454Z,101944.10
2023-02-11T00:23:22.048Z,101937.64
2023-02-11T00:25:34.659Z,101937.09
2023-02-11T00:27:46.233Z,101935.82
2023-02-11T00:29:58.226Z,101933.42
2023-02-11T00:32:11.244Z,101932.38
2023-02-11T00:34:23.035Z,101922.52
2023-02-11T00:36:35.028Z,101914.96
2023-02-11T00:38:48.576Z,101921.92
2023-02-11T00:41:01.270Z,101923.45
2023-02-11T00:43:13.162Z,101927.41
2023-02-11T00:45:25.262Z,101927.74
2023-02-11T00:47:37.251Z,101922.91
2023-02-11T00:49:49.246Z,101915.02
2023-02-11T00:52:01.447Z,101903.83
2023-02-11T00:54:13.956Z,101884.45
2023-02-11T00:56:26.468Z,101859.55
2023-02-11T00:58:38.662Z,101845.98
2023-02-11T01:00:50.552Z,101838.08
2023-02-11T01:03:02.765Z,101826.73
2023-02-11T01:05:14.997Z,101824.21
2023-02-11T01:07:28.788Z,101825.82
2023-02-11T01:09:40.992Z,101818.65
2023-02-11T01:11:52.679Z,101809.77
2023-02-11T01:14:04.673Z,101794.33
2023-02-11T01:16:17.586Z,101784.08
2023-02-11T01:18:30.509Z,101780.16
2023-02-11T01:20:43.424Z,101777.42
2023-02-11T01:22:55.325Z,101773.27
2023-02-11T01:25:08.642Z,101764.20
2023-02-11T01:27:20.738Z,101760.22
2023-02-11T01:29:32.631Z,101752.70
2023-02-11T01:31:44.436Z,101760.00
2023-02-11T01:33:56.827Z,101769.23
2023-02-11T01:36:09.237Z,101775.92
2023-02-11T01:38:24.407Z,101777.23
2023-02-11T01:40:38.139Z,101792.45
2023-02-11T01:42:51.141Z,101802.61
2023-02-11T01:45:42.365Z,101809.77
2023-02-11T01:47:54.583Z,101813.86
2023-02-11T01:50:06.771Z,101820.15
2023-02-11T01:52:26.343Z,101826.56
2023-02-11T01:55:02.911Z,101828.52
2023-02-11T01:57:25.132Z,101833.39
2023-02-11T01:59:49.478Z,101824.75
2023-02-11T02:02:08.542Z,101825.83
2023-02-11T02:04:27.247Z,101823.34
2023-02-11T02:06:51.013Z,101826.73
2023-02-11T02:09:15.807Z,101820.77
2023-02-11T02:11:28.209Z,101818.87
2023-02-11T02:13:40.102Z,101796.84
2023-02-11T02:15:58.035Z,101782.39
2023-02-11T02:18:29.590Z,101787.86
2023-02-11T02:21:08.205Z,101773.17
2023-02-11T02:23:48.579Z,101747.41
2023-02-11T02:26:16.430Z,101740.66
2023-02-11T02:29:13.997Z,101731.88
2023-02-11T02:31:58.858Z,101726.58
2023-02-11T02:34:25.905Z,101732.83
2023-02-11T02:36:48.246Z,101721.67
2023-02-11T02:39:15.802Z,101724.03
2023-02-11T02:41:33.751Z,101735.77
2023-02-11T02:43:49.315Z,101733.98
2023-02-11T02:46:15.282Z,101728.70
2023-02-11T02:48:33.588Z,101730.80
2023-02-11T02:50:46.702Z,101727.55
2023-02-11T02:53:17.032Z,101725.01
2023-02-11T02:55:41.722Z,101725.70
2023-02-11T02:58:13.581Z,101728.73
2023-02-11T03:00:45.108Z,101726.86
2023-02-11T03:03:09.016Z,101725.39
2023-02-11T03:05:44.454Z,101719.27
2023-02-11T03:08:09.394Z,101703.85
2023-02-11T03:10:27.717Z,101697.60
2023-02-11T03:12:40.301Z,101692.80
2023-02-11T03:14:52.915Z,101693.45
2023-02-11T03:17:08.523Z,101694.64
2023-02-11T03:19:29.806Z,101694.98
2023-02-11T03:21:44.252Z,101697.98
2023-02-11T03:24:00.775Z,101701.00
2023-02-11T03:26:22.992Z,101696.92
2023-02-11T03:28:42.671Z,101686.52
2023-02-11T03:31:04.557Z,101681.76
2023-02-11T03:33:30.720Z,101681.48
2023-02-11T03:35:51.786Z,101671.91
2023-02-11T03:38:10.806Z,101674.02
2023-02-11T03:40:26.699Z,101662.64
2023-02-11T03:42:43.808Z,101650.15
2023-02-11T03:45:09.674Z,101647.48
2023-02-11T03:47:26.412Z,101638.16
2023-02-11T03:49:40.991Z,101632.45
2023-02-11T03:51:54.087Z,101625.36
2023-02-11T03:54:11.618Z,101616.80
2023-02-11T03:56:28.829Z,101613.86
2023-02-11T03:58:40.620Z,101604.04
2023-02-11T04:00:53.047Z,101601.34
2023-02-11T04:03:06.783Z,101597.17
2023-02-11T04:05:18.555Z,101596.10
2023-02-11T04:07:31.674Z,101589.05
2023-02-11T04:09:44.690Z,101583.77
2023-02-11T04:11:57.298Z,101580.17
2023-02-11T04:14:09.235Z,101587.65
2023-02-11T04:16:21.540Z,101585.52
2023-02-11T04:18:33.384Z,101575.86
2023-02-11T04:20:45.298Z,101574.22
2023-02-11T04:22:57.171Z,101574.76
2023-02-11T04:25:09.886Z,101577.39
2023-02-11T04:27:21.881Z,101576.99
2023-02-11T04:29:33.665Z,101576.15
2023-02-11T04:31:45.617Z,101569.98
2023-02-11T04:33:57.564Z,101573.45
2023-02-11T04:36:09.252Z,101573.54
2023-02-11T04:38:24.208Z,101565.48
2023-02-11T04:40:35.995Z,101560.98
2023-02-11T04:42:47.683Z,101558.30
2023-02-11T04:44:59.476Z,101556.04
2023-02-11T04:47:13.682Z,101551.60
2023-02-11T04:49:25.720Z,101555.65
2023-02-11T04:51:37.607Z,101550.77
2023-02-11T04:53:49.297Z,101550.17
2023-02-11T04:56:01.188Z,101558.52
2023-02-11T04:58:12.773Z,101561.06
2023-02-11T05:00:24.771Z,101557.23
2023-02-11T05:02:36.556Z,101551.63
2023-02-11T05:04:48.551Z,101551.71
2023-02-11T05:07:00.238Z,101545.91
2023-02-11T05:09:12.861Z,101539.67
2023-02-11T05:11:25.872Z,101535.55
2023-02-11T05:13:37.655Z,101526.75
2023-02-11T05:15:50.106Z,101527.74
2023-02-11T05:18:02.158Z,101520.80
2023-02-11T05:20:14.482Z,101521.46
2023-02-11T05:22:26.248Z,101523.59
2023-02-11T05:24:37.936Z,101513.10
2023-02-11T05:26:49.725Z,101522.52
2023-02-11T05:29:01.930Z,101516.33
2023-02-11T05:31:14.931Z,101515.52
2023-02-11T05:33:27.040Z,101513.61
2023-02-11T05:35:39.141Z,101520.27
2023-02-11T05:37:51.030Z,101506.75
2023-02-11T05:40:02.929Z,101506.06
2023-02-11T05:42:15.019Z,101501.79
2023-02-11T05:44:26.814Z,101499.93
2023-02-11T05:46:38.430Z,101499.73
2023-02-11T05:48:50.798Z,101498.59
2023-02-11T05:51:02.821Z,101499.60
2023-02-11T05:53:15.299Z,101492.86
2023-02-11T05:55:27.398Z,101486.28
2023-02-11T05:57:39.290Z,101484.77
2023-02-11T05:59:50.877Z,101480.96
2023-02-11T06:02:02.981Z,101488.40
2023-02-11T06:04:15.073Z,101495.20
2023-02-11T06:06:27.075Z,101485.48
2023-02-11T06:08:39.777Z,101490.79
2023-02-11T06:10:52.080Z,101491.73
2023-02-11T06:13:04.595Z,101484.39
2023-02-11T06:15:16.378Z,101486.83
2023-02-11T06:17:32.056Z,101476.59
2023-02-11T06:19:44.459Z,101483.09
2023-02-11T06:21:56.454Z,101484.50
2023-02-11T06:24:08.550Z,101483.58
2023-02-11T06:26:23.495Z,101489.56
2023-02-11T06:28:36.330Z,101489.94
2023-02-11T06:30:48.353Z,101489.48
2023-02-11T06:33:00.219Z,101494.34
2023-02-11T06:35:14.414Z,101491.78
2023-02-11T06:37:26.157Z,101494.44
2023-02-11T06:39:38.250Z,101483.10
2023-02-11T06:41:49.946Z,101480.75
2023-02-11T06:44:01.727Z,101483.21
2023-02-11T06:46:13.960Z,101474.60
2023-02-11T06:48:25.716Z,101474.53
2023-02-11T06:50:37.304Z,101474.64
2023-02-11T06:52:49.707Z,101478.11
2023-02-11T06:55:01.403Z,101484.96
2023-02-11T06:57:13.182Z,101486.52
2023-02-11T06:59:25.383Z,101483.05
2023-02-11T07:01:37.090Z,101482.60
2023-02-11T07:03:48.961Z,101477.61
2023-02-11T07:06:00.751Z,101466.30
2023-02-11T07:08:13.055Z,101462.20
2023-02-11T07:10:25.174Z,101461.63
2023-02-11T07:12:37.451Z,101459.81
2023-02-11T07:14:49.346Z,101453.13
2023-02-11T07:17:01.647Z,101453.51
2023-02-11T07:19:13.641Z,101460.41
2023-02-11T07:21:25.635Z,101461.57
2023-02-11T07:23:38.255Z,101456.33
2023-02-11T07:25:50.174Z,101444.52
2023-02-11T07:28:04.114Z,101436.27
2023-02-11T07:30:15.969Z,101438.41
2023-02-11T07:32:27.763Z,101445.71
2023-02-11T07:34:39.979Z,101445.36
2023-02-11T07:36:52.070Z,101432.92
2023-02-11T07:39:04.356Z,101437.28
2023-02-11T07:41:20.857Z,101437.08
2023-02-11T07:43:33.889Z,101431.38
2023-02-11T07:45:45.974Z,101428.75
2023-02-11T07:47:58.182Z,101428.52
2023-02-11T07:50:10.474Z,101427.90
2023-02-11T07:52:22.776Z,101431.46
2023-02-11T07:54:34.772Z,101434.34
2023-02-11T07:56:46.500Z,101437.36
2023-02-11T07:59:02.502Z,101439.87
2023-02-11T08:01:22.731Z,101428.83
2023-02-11T08:03:36.283Z,101430.31
2023-02-11T08:05:47.956Z,101435.60
2023-02-11T08:08:00.050Z,101448.15
2023-02-11T08:10:12.049Z,101453.80
2023-02-11T08:12:23.633Z,101456.30
2023-02-11T08:14:35.529Z,101465.36
2023-02-11T08:16:47.341Z,101469.09
2023-02-11T08:19:02.405Z,101467.45
2023-02-11T08:21:14.267Z,101475.95
2023-02-11T08:23:26.466Z,101468.60
2023-02-11T08:25:38.360Z,101454.69
2023-02-11T08:27:50.355Z,101440.40
2023-02-11T08:30:02.144Z,101446.37
2023-02-11T08:32:13.762Z,101445.77
2023-02-11T08:34:26.037Z,101446.06
2023-02-11T08:36:39.462Z,101444.29
2023-02-11T08:38:51.483Z,101434.70
2023-02-11T08:41:03.856Z,101431.52
2023-02-11T08:43:15.651Z,101430.77
2023-02-11T08:45:27.649Z,101431.39
2023-02-11T08:47:40.270Z,101433.27
2023-02-11T08:49:52.555Z,101425.21
2023-02-11T08:52:04.656Z,101417.77
2023-02-11T08:54:16.755Z,101425.25
2023-02-11T08:56:31.526Z,101427.94
2023-02-11T08:58:43.603Z,101438.43
2023-02-11T09:00:55.965Z,101431.98
2023-02-11T09:03:08.108Z,101421.77
2023-02-11T09:05:19.705Z,101419.25
2023-02-11T09:07:31.380Z,101409.00
2023-02-11T09:09:43.069Z,101415.70
2023-02-11T09:11:57.434Z,101404.38
2023-02-11T09:14:16.802Z,101405.25
2023-02-11T09:16:32.178Z,101420.46
2023-02-11T09:18:45.891Z,101422.48
2023-02-11T09:21:11.119Z,101419.91
2023-02-11T09:23:23.274Z,101424.44
2023-02-11T09:25:35.197Z,101426.02
2023-02-11T09:27:46.981Z,101427.19
2023-02-11T09:29:58.666Z,101428.13
2023-02-11T09:32:10.956Z,101423.15
2023-02-11T09:34:23.069Z,101424.62
2023-02-11T09:36:37.783Z,101414.23
2023-02-11T09:38:49.908Z,101413.39
2023-02-11T09:41:04.215Z,101421.60
2023-02-11T09:43:33.487Z,101414.41
2023-02-11T09:45:45.431Z,101423.70
2023-02-11T09:48:06.343Z,101428.12
2023-02-11T09:50:36.500Z,101405.58
2023-02-11T09:53:07.326Z,101390.85
2023-02-11T09:55:25.269Z,101383.64
2023-02-11T09:57:37.665Z,101384.33
2023-02-11T09:59:50.587Z,101392.41
2023-02-11T10:02:14.663Z,101406.98
2023-02-11T10:05:20.088Z,101424.30
2023-02-11T10:07:55.144Z,101424.70
2023-02-11T10:10:10.117Z,101430.26
2023-02-11T10:12:53.745Z,101433.40
2023-02-11T10:15:15.264Z,101402.05
2023-02-11T10:17:52.248Z,101395.24
2023-02-11T10:20:23.082Z,101394.99
2023-02-11T10:22:41.732Z,101379.67
2023-02-11T10:25:00.214Z,101370.31
2023-02-11T10:27:20.688Z,101367.88
2023-02-11T10:29:32.625Z,101359.04
2023-02-11T10:31:46.713Z,101366.48
2023-02-11T10:34:13.088Z,101359.77
2023-02-11T10:36:31.281Z,101354.44
2023-02-11T10:38:43.686Z,101350.16
2023-02-11T10:40:55.377Z,101355.38
2023-02-11T10:43:12.707Z,101344.88
2023-02-11T10:45:40.461Z,101350.54
2023-02-11T10:47:52.348Z,101336.84
2023-02-11T10:50:25.028Z,101329.95
2023-02-11T10:52:36.717Z,101332.55
2023-02-11T10:55:01.102Z,101326.40
2023-02-11T10:57:20.109Z,101312.27
2023-02-11T10:59:40.145Z,101303.14
2023-02-11T11:01:56.518Z,101292.45
2023-02-11T11:04:30.823Z,101284.02
2023-02-11T11:06:42.854Z,101282.83
2023-02-11T11:08:54.746Z,101284.58
2023-02-11T11:11:12.995Z,101272.75
2023-02-11T11:13:35.836Z,101260.76
2023-02-11T11:16:20.347Z,101263.38
2023-02-11T11:18:32.699Z,101241.10
2023-02-11T11:21:00.073Z,101233.02
2023-02-11T11:23:19.066Z,101240.43
2023-02-11T11:25:31.106Z,101253.98
2023-02-11T11:27:53.053Z,101264.58
2023-02-11T11:30:05.276Z,101263.81
2023-02-11T11:32:29.420Z,101272.42
2023-02-11T11:34:49.533Z,101263.87
2023-02-11T11:37:26.410Z,101269.95
2023-02-11T11:39:40.733Z,101267.67
2023-02-11T11:42:01.796Z,101265.61
2023-02-11T11:44:37.992Z,101272.26
2023-02-11T11:47:07.903Z,101275.06
2023-02-11T11:49:59.356Z,101271.77
2023-02-11T11:53:22.658Z,101271.00
2023-02-11T11:56:28.919Z,101273.12
2023-02-11T11:58:59.571Z,101279.84
2023-02-11T12:01:44.681Z,101299.35
2023-02-11T12:04:17.865Z,101308.02
2023-02-11T12:06:42.850Z,101310.27
2023-02-11T12:09:10.114Z,101315.02
2023-02-11T12:12:06.850Z,101312.66
2023-02-11T12:14:30.516Z,101320.80
2023-02-11T12:17:19.888Z,101317.58
2023-02-11T12:19:51.139Z,101321.51
2023-02-11T12:22:34.244Z,101323.09
2023-02-11T12:25:11.453Z,101322.69
2023-02-11T12:27:29.233Z,101317.34
2023-02-11T12:30:13.711Z,101315.19
2023-02-11T12:32:41.806Z,101321.83
2023-02-11T12:35:25.446Z,101316.91
2023-02-11T12:38:15.890Z,101317.67
2023-02-11T12:40:37.091Z,101321.67
2023-02-11T12:43:23.854Z,101325.92
2023-02-11T12:46:11.780Z,101327.55
2023-02-11T12:48:39.261Z,101323.31
2023-02-11T12:51:07.322Z,101321.15
2023-02-11T12:54:01.610Z,101319.67
2023-02-11T12:56:26.929Z,101316.09
2023-02-11T12:58:45.252Z,101328.89
2023-02-11T13:01:09.458Z,101331.38
2023-02-11T13:03:27.478Z,101323.16
2023-02-11T13:05:51.508Z,101329.05
2023-02-11T13:08:23.830Z,101326.95
2023-02-11T13:10:38.187Z,101321.95
2023-02-11T13:13:11.476Z,101322.44
2023-02-11T13:15:26.031Z,101320.38
2023-02-11T13:17:47.774Z,101322.45
2023-02-11T13:20:12.856Z,101320.30
2023-02-11T13:22:34.881Z,101322.16
2023-02-11T13:25:23.332Z,101324.45
2023-02-11T13:27:58.831Z,101324.09
2023-02-11T13:30:20.191Z,101323.93
2023-02-11T13:32:54.206Z,101322.69
2023-02-11T13:35:26.165Z,101327.84
2023-02-11T13:37:39.903Z,101326.15
2023-02-11T13:40:05.279Z,101330.27
2023-02-11T13:42:18.760Z,101333.16
2023-02-11T13:44:34.832Z,101337.59
2023-02-11T13:46:59.845Z,101344.75
2023-02-11T13:49:21.141Z,101346.38
2023-02-11T13:51:36.206Z,101343.50
2023-02-11T13:53:56.195Z,101335.90
2023-02-11T13:56:13.032Z,101334.89
2023-02-11T13:58:27.751Z,101335.43
2023-02-11T14:00:39.660Z,101334.89
2023-02-11T14:03:29.998Z,101329.38
2023-02-11T14:06:29.955Z,101327.85
2023-02-11T14:09:01.936Z,101321.06
2023-02-11T14:11:32.682Z,101324.52
2023-02-11T14:13:47.884Z,101322.20
2023-02-11T14:16:04.531Z,101327.79
2023-02-11T14:18:58.313Z,101329.85
2023-02-11T14:21:20.745Z,101332.10
2023-02-11T14:23:32.783Z,101334.83
2023-02-11T14:25:51.930Z,101340.14
2023-02-11T14:28:16.751Z,101343.37
2023-02-11T14:30:47.065Z,101348.21
2023-02-11T14:33:20.931Z,101360.61
2023-02-11T14:36:00.574Z,101358.74
2023-02-11T14:38:34.484Z,101365.11
2023-02-11T14:41:22.625Z,101375.00
2023-02-11T14:43:48.238Z,101376.55
2023-02-11T14:46:03.069Z,101384.71
2023-02-11T14:48:17.382Z,101392.52
2023-02-11T14:50:38.355Z,101393.09
2023-02-11T14:52:51.485Z,101392.29
2023-02-11T14:55:18.934Z,101397.92
2023-02-11T14:57:30.965Z,101400.08
2023-02-11T15:00:02.644Z,101405.59
2023-02-11T15:02:28.974Z,101415.23
2023-02-11T15:04:44.132Z,101419.55
2023-02-11T15:06:59.615Z,101418.70
2023-02-11T15:09:32.443Z,101415.90
2023-02-11T15:11:48.070Z,101419.98
2023-02-11T15:14:11.143Z,101416.62
2023-02-11T15:16:24.974Z,101425.34
2023-02-11T15:18:44.897Z,101428.31
2023-02-11T15:20:56.892Z,101428.93
2023-02-11T15:23:20.515Z,101428.02
2023-02-11T15:25:34.276Z,101430.33
2023-02-11T15:27:46.085Z,101431.55
2023-02-11T15:29:57.875Z,101431.05
2023-02-11T15:32:10.126Z,101431.46
2023-02-11T15:34:22.175Z,101432.80
2023-02-11T15:36:36.527Z,101436.60
2023-02-11T15:39:27.531Z,101430.19
2023-02-11T15:41:39.638Z,101429.02
2023-02-11T15:43:51.950Z,101436.83
2023-02-11T15:46:03.972Z,101439.83
2023-02-11T15:48:15.787Z,101442.28
2023-02-11T15:50:40.894Z,101448.02
2023-02-11T15:52:55.341Z,101449.75
2023-02-11T15:55:13.821Z,101453.73
2023-02-11T15:57:26.430Z,101462.34
2023-02-11T15:59:40.683Z,101466.96
2023-02-11T16:01:54.716Z,101469.98
2023-02-11T16:04:06.905Z,101472.55
2023-02-11T16:06:22.533Z,101483.81
2023-02-11T16:08:35.633Z,101486.80
2023-02-11T16:11:03.416Z,101490.42
2023-02-11T16:13:20.524Z,101491.80
2023-02-11T16:15:38.844Z,101493.05
2023-02-11T16:17:53.084Z,101497.02
2023-02-11T16:20:06.822Z,101503.35
2023-02-11T16:22:30.382Z,101508.63
2023-02-11T16:24:43.610Z,101509.92
2023-02-11T16:26:59.906Z,101510.66
2023-02-11T16:29:15.633Z,101513.35
2023-02-11T16:31:34.163Z,101522.05
2023-02-11T16:33:46.129Z,101533.58
2023-02-11T16:35:57.979Z,101538.91
2023-02-11T16:38:09.547Z,101539.70
2023-02-11T16:40:21.401Z,101545.71
2023-02-11T16:42:33.393Z,101545.63
2023-02-11T16:44:45.705Z,101542.89
2023-02-11T16:47:03.388Z,101546.94
2023-02-11T16:49:26.314Z,101547.55
2023-02-11T16:51:41.394Z,101555.25
2023-02-11T16:53:53.436Z,101563.36
2023-02-11T16:56:05.749Z,101567.38
2023-02-11T16:58:17.835Z,101569.40
2023-02-11T17:00:30.289Z,101571.20
2023-02-11T17:02:43.461Z,101578.80
2023-02-11T17:04:58.644Z,101579.03
2023-02-11T17:07:10.526Z,101587.01
2023-02-11T17:09:30.317Z,101584.96
2023-02-11T17:11:43.220Z,101593.81
2023-02-11T17:13:55.224Z,101592.88
2023-02-11T17:16:16.086Z,101598.85
2023-02-11T17:18:28.215Z,101600.48
2023-02-11T17:20:42.985Z,101609.34
2023-02-11T17:22:55.068Z,101609.51
2023-02-11T17:25:08.187Z,101613.09
2023-02-11T17:27:20.077Z,101617.49
2023-02-11T17:29:32.386Z,101622.88
2023-02-11T17:31:45.046Z,101630.57
2023-02-11T17:33:56.777Z,101631.28
2023-02-11T17:36:10.617Z,101626.62
2023-02-11T17:38:22.512Z,101631.92
2023-02-11T17:40:34.811Z,101634.56
2023-02-11T17:42:46.806Z,101635.08
2023-02-11T17:44:59.013Z,101638.89
2023-02-11T17:47:11.479Z,101643.33
2023-02-11T17:49:23.305Z,101642.48
2023-02-11T17:51:38.236Z,101646.13
2023-02-11T17:53:50.058Z,101651.17
2023-02-11T17:56:06.461Z,101651.88
2023-02-11T17:58:18.352Z,101655.09
2023-02-11T18:00:31.061Z,101648.79
2023-02-11T18:02:42.546Z,101649.91
2023-02-11T18:04:57.685Z,101656.98
2023-02-11T18:07:10.323Z,101655.29
2023-02-11T18:09:22.517Z,101658.84
2023-02-11T18:11:37.753Z,101663.17
2023-02-11T18:13:54.524Z,101664.08
2023-02-11T18:16:16.063Z,101665.73
2023-02-11T18:18:28.519Z,101670.30
2023-02-11T18:20:42.946Z,101671.60
2023-02-11T18:22:55.115Z,101676.06
2023-02-11T18:25:08.909Z,101680.64
2023-02-11T18:27:21.518Z,101682.05
2023-02-11T18:29:33.528Z,101688.34
2023-02-11T18:31:45.481Z,101690.15
2023-02-11T18:33:58.020Z,101688.80
2023-02-11T18:36:12.666Z,101691.38
2023-02-11T18:38:25.431Z,101690.96
2023-02-11T18:40:40.981Z,101690.52
2023-02-11T18:42:53.065Z,101692.89
2023-02-11T18:45:09.503Z,101700.39
2023-02-11T18:47:21.864Z,101697.95
2023-02-11T18:49:35.804Z,101698.43
2023-02-11T18:51:47.839Z,101699.83
2023-02-11T18:54:02.046Z,101701.92
2023-02-11T18:56:17.428Z,101714.02
2023-02-11T18:58:29.523Z,101710.03
2023-02-11T19:00:48.684Z,101713.61
2023-02-11T19:03:04.368Z,101721.66
2023-02-11T19:05:16.057Z,101722.03
2023-02-11T19:07:27.840Z,101722.83
2023-02-11T19:09:39.627Z,101727.23
2023-02-11T19:11:54.126Z,101738.34
2023-02-11T19:14:10.367Z,101741.59
2023-02-11T19:16:22.400Z,101743.34
2023-02-11T19:18:36.211Z,101745.82
2023-02-11T19:20:47.999Z,101751.42
2023-02-11T19:23:01.018Z,101753.02
2023-02-11T19:25:13.954Z,101750.01
2023-02-11T19:27:26.849Z,101744.34
2023-02-11T19:29:39.132Z,101749.96
2023-02-11T19:31:51.308Z,101755.61
2023-02-11T19:34:04.171Z,101765.46
2023-02-11T19:36:21.486Z,101765.32
2023-02-11T19:38:34.604Z,101777.21
2023-02-11T19:40:47.224Z,101779.17
2023-02-11T19:42:59.208Z,101777.44
2023-02-11T19:45:11.354Z,101775.15
2023-02-11T19:47:27.961Z,101773.04
2023-02-11T19:49:40.209Z,101776.09
2023-02-11T19:51:53.580Z,101773.80
2023-02-11T19:54:06.967Z,101780.40
2023-02-11T19:56:20.845Z,101784.73
2023-02-11T19:58:33.795Z,101788.08
2023-02-11T20:00:45.653Z,101789.80
2023-02-11T20:02:57.636Z,101791.58
2023-02-11T20:05:09.909Z,101797.85
2023-02-11T20:07:21.562Z,101802.46
2023-02-11T20:09:33.904Z,101801.54
2023-02-11T20:11:49.427Z,101804.77
2023-02-11T20:14:02.424Z,101816.45
2023-02-11T20:16:18.007Z,101821.36
2023-02-11T20:18:29.860Z,101823.46
2023-02-11T20:20:41.751Z,101828.30
2023-02-11T20:22:53.319Z,101830.60
2023-02-11T20:25:05.740Z,101832.48
2023-02-11T20:27:19.973Z,101840.05
2023-02-11T20:29:32.187Z,101847.69
2023-02-11T20:31:48.483Z,101845.69
2023-02-11T20:34:01.610Z,101854.44
2023-02-11T20:36:16.670Z,101853.02
2023-02-11T20:38:29.281Z,101860.53
2023-02-11T20:40:41.274Z,101863.80
2023-02-11T20:42:52.862Z,101868.20
2023-02-11T20:45:06.619Z,101873.98
2023-02-11T20:47:27.296Z,101874.48
2023-02-11T20:49:39.594Z,101879.20
2023-02-11T20:51:53.938Z,101882.23
2023-02-11T20:54:07.001Z,101891.87
2023-02-11T20:56:22.718Z,101897.61
2023-02-11T20:58:36.222Z,101894.14
2023-02-11T21:00:48.176Z,101896.53
2023-02-11T21:03:00.414Z,101898.69
2023-02-11T21:05:12.779Z,101911.90
2023-02-11T21:07:24.785Z,101907.86
2023-02-11T21:09:39.121Z,101914.45
2023-02-11T21:11:53.158Z,101922.70
2023-02-11T21:14:12.120Z,101928.13
2023-02-11T21:16:24.774Z,101926.67
2023-02-11T21:18:38.072Z,101927.55
2023-02-11T21:20:50.666Z,101933.55
2023-02-11T21:23:03.320Z,101937.71
2023-02-11T21:25:24.024Z,101936.95
2023-02-11T21:27:38.023Z,101932.23
2023-02-11T21:29:54.554Z,101941.63
2023-02-11T21:32:09.121Z,101941.36
2023-02-11T21:34:21.394Z,101942.61
2023-02-11T21:36:33.684Z,101949.91
2023-02-11T21:38:45.782Z,101951.97
2023-02-11T21:41:04.325Z,101961.13
2023-02-11T21:43:16.454Z,101957.17
2023-02-11T21:45:30.754Z,101964.42
2023-02-11T21:47:43.240Z,101978.29
2023-02-11T21:49:55.280Z,101975.95
2023-02-11T21:52:07.064Z,101970.23
2023-02-11T21:54:21.619Z,101978.27
2023-02-11T21:56:35.585Z,101988.14
2023-02-11T21:58:47.477Z,102002.54
2023-02-11T22:00:59.631Z,102005.05
2023-02-11T22:03:12.431Z,101994.71
2023-02-11T22:05:24.361Z,102000.86
2023-02-11T22:07:36.662Z,102006.71
2023-02-11T22:09:48.859Z,102000.80
2023-02-11T22:12:01.060Z,101999.51
2023-02-11T22:14:13.395Z,102007.05
2023-02-11T22:16:27.124Z,102011.44
2023-02-11T22:18:39.316Z,102016.94
2023-02-11T22:21:02.379Z,102015.50
2023-02-11T22:23:14.091Z,102020.06
2023-02-11T22:25:25.931Z,102023.45
2023-02-11T22:27:38.129Z,102025.98
2023-02-11T22:29:50.532Z,102033.61
2023-02-11T22:32:02.255Z,102033.41
2023-02-11T22:34:14.214Z,102026.98
2023-02-11T22:36:32.655Z,102031.21
2023-02-11T22:38:44.449Z,102042.89
2023-02-11T22:40:58.693Z,102044.30
2023-02-11T22:43:10.687Z,102050.44
2023-02-11T22:45:22.352Z,102051.89
2023-02-11T22:47:34.365Z,102052.98
2023-02-11T22:49:46.463Z,102056.16
2023-02-11T22:51:58.460Z,102058.64
2023-02-11T22:54:16.164Z,102065.39
2023-02-11T22:56:31.003Z,102074.35
2023-02-11T22:58:42.838Z,102078.14
2023-02-11T23:00:54.529Z,102078.37
2023-02-11T23:03:08.578Z,102079.70
2023-02-11T23:05:20.562Z,102086.50
2023-02-11T23:07:32.671Z,102085.77
2023-02-11T23:09:44.554Z,102083.85
2023-02-11T23:11:57.999Z,102086.52
2023-02-11T23:14:12.411Z,102094.05
2023-02-11T23:16:28.629Z,102099.62
2023-02-11T23:18:42.825Z,102098.02
2023-02-11T23:20:54.269Z,102097.34
2023-02-11T23:23:06.563Z,102094.09
2023-02-11T23:25:18.214Z,102098.97
2023-02-11T23:27:30.140Z,102100.75
2023-02-11T23:29:41.823Z,102100.95
2023-02-11T23:31:53.514Z,102105.76
2023-02-11T23:34:07.353Z,102104.01
2023-02-11T23:36:21.536Z,102112.58
2023-02-11T23:38:33.064Z,102115.71
2023-02-11T23:40:44.644Z,102117.13
2023-02-11T23:42:56.272Z,102121.23
2023-02-11T23:45:09.053Z,102127.56
2023-02-11T23:47:20.759Z,102137.59
2023-02-11T23:49:32.955Z,102143.41
2023-02-11T23:51:44.797Z,102147.27
2023-02-11T23:53:56.537Z,102147.61
2023-02-11T23:56:17.212Z,102149.64
2023-02-11T23:58:29.432Z,102153.83
